createdAt,value
2023-01-04T00:02:03.784Z,5.10
2023-01-04T00:06:07.086Z,5.03
2023-01-04T00:10:08.509Z,4.80
2023-01-04T00:14:10.799Z,5.07
2023-01-04T00:18:13.554Z,6.07
2023-01-04T00:22:14.559Z,6.83
2023-01-04T00:26:18.936Z,5.53
2023-01-04T00:30:20.146Z,5.47
2023-01-04T00:34:21.188Z,5.30
2023-01-04T00:38:22.411Z,5.40
2023-01-04T00:42:23.678Z,5.50
2023-01-04T00:46:24.747Z,5.87
2023-01-04T00:50:25.770Z,5.40
2023-01-04T00:54:26.986Z,5.10
2023-01-04T00:58:28.143Z,5.27
2023-01-04T01:02:29.544Z,5.57
2023-01-04T01:06:32.927Z,5.43
2023-01-04T01:10:34.026Z,4.87
2023-01-04T01:14:35.027Z,5.60
2023-01-04T01:18:38.380Z,5.83
2023-01-04T01:22:39.609Z,6.03
2023-01-04T01:26:41.094Z,6.80
2023-01-04T01:30:43.125Z,7.23
2023-01-04T01:34:44.184Z,8.07
2023-01-04T01:38:45.504Z,9.73
2023-01-04T01:42:46.659Z,9.87
2023-01-04T01:46:51.529Z,10.50
2023-01-04T01:50:58.916Z,12.20
2023-01-04T01:55:03.742Z,12.23
2023-01-04T01:59:06.488Z,11.77
2023-01-04T02:03:16.473Z,13.03
2023-01-04T02:07:24.179Z,12.57
2023-01-04T02:11:26.327Z,10.67
2023-01-04T02:15:30.247Z,11.00
2023-01-04T02:19:54.624Z,11.70
2023-01-04T02:24:07.905Z,10.03
2023-01-04T02:28:12.730Z,9.87
2023-01-04T02:32:29.588Z,8.97
2023-01-04T02:36:37.360Z,9.10
2023-01-04T02:40:51.049Z,8.70
2023-01-04T02:44:58.940Z,8.40
2023-01-04T02:49:20.123Z,8.13
2023-01-04T02:53:36.658Z,9.47
2023-01-04T02:57:47.956Z,9.13
2023-01-04T03:02:31.416Z,8.20
2023-01-04T03:06:42.310Z,8.77
2023-01-04T03:11:10.372Z,9.63
2023-01-04T03:15:24.252Z,10.10
2023-01-04T03:19:45.264Z,12.10
2023-01-04T03:24:07.605Z,11.90
2023-01-04T03:28:29.771Z,13.07
2023-01-04T03:33:08.655Z,13.80
2023-01-04T03:37:22.681Z,15.37
2023-01-04T03:41:46.371Z,12.20
2023-01-04T03:46:12.517Z,11.93
2023-01-04T03:50:23.358Z,13.27
2023-01-04T03:54:34.071Z,13.50
2023-01-04T03:58:35.829Z,14.47
2023-01-04T04:02:38.899Z,12.83
2023-01-04T04:06:58.342Z,14.07
2023-01-04T04:11:19.846Z,13.73
2023-01-04T04:15:20.904Z,13.07
2023-01-04T04:19:22.159Z,13.10
2023-01-04T04:23:23.313Z,12.97
2023-01-04T04:27:24.437Z,12.37
2023-01-04T04:31:25.400Z,13.37
2023-01-04T04:35:26.543Z,12.73
2023-01-04T04:39:27.646Z,12.40
2023-01-04T04:43:28.716Z,13.00
2023-01-04T04:47:29.674Z,12.13
2023-01-04T04:51:30.942Z,12.73
2023-01-04T04:55:31.864Z,13.50
2023-01-04T04:59:33.226Z,13.30
2023-01-04T05:03:35.098Z,12.87
2023-01-04T05:07:36.196Z,13.13
2023-01-04T05:11:55.621Z,15.30
2023-01-04T05:15:56.577Z,14.67
2023-01-04T05:19:57.648Z,15.43
2023-01-04T05:23:58.591Z,17.30
2023-01-04T05:28:00.102Z,15.20
2023-01-04T05:32:01.103Z,14.87
2023-01-04T05:36:03.573Z,14.43
2023-01-04T05:40:05.067Z,15.57
2023-01-04T05:44:06.161Z,16.03
2023-01-04T05:48:07.368Z,14.73
2023-01-04T05:52:08.669Z,10.60
2023-01-04T05:56:09.992Z,11.13
2023-01-04T06:00:13.123Z,11.60
2023-01-04T06:04:14.257Z,11.93
2023-01-04T06:08:15.594Z,12.23
2023-01-04T06:12:16.767Z,10.93
2023-01-04T06:16:17.729Z,10.47
2023-01-04T06:20:19.113Z,12.03
2023-01-04T06:24:20.048Z,11.43
2023-01-04T06:28:21.008Z,10.77
2023-01-04T06:32:22.013Z,11.20
2023-01-04T06:36:22.956Z,12.60
2023-01-04T06:40:24.064Z,9.83
2023-01-04T06:44:25.026Z,9.97
2023-01-04T06:48:26.135Z,10.23
2023-01-04T06:52:27.799Z,9.03
2023-01-04T06:56:30.280Z,8.77
2023-01-04T07:00:31.336Z,8.80
2023-01-04T07:04:32.543Z,7.57
2023-01-04T07:08:34.624Z,8.17
2023-01-04T07:12:37.601Z,9.80
2023-01-04T07:16:40.446Z,11.33
2023-01-04T07:20:41.564Z,10.10
2023-01-04T07:24:43.232Z,11.15
2023-01-04T07:29:02.710Z,11.07
2023-01-04T07:33:03.665Z,11.43
2023-01-04T07:37:08.454Z,9.73
2023-01-04T07:41:09.558Z,9.43
2023-01-04T07:45:11.104Z,10.20
2023-01-04T07:49:17.861Z,9.67
2023-01-04T07:53:18.174Z,9.17
2023-01-04T07:57:19.306Z,9.30
2023-01-04T08:01:20.354Z,8.20
2023-01-04T08:05:23.599Z,8.43
2023-01-04T08:09:24.697Z,8.00
2023-01-04T08:13:26.574Z,7.73
2023-01-04T08:17:27.683Z,6.50
2023-01-04T08:21:30.693Z,5.80
2023-01-04T08:25:32.218Z,6.60
2023-01-04T08:29:35.177Z,6.67
2023-01-04T08:33:40.898Z,5.93
2023-01-04T08:37:41.984Z,6.53
2023-01-04T08:42:14.330Z,4.20
2023-01-04T08:46:06.405Z,4.07
2023-01-04T08:50:10.801Z,4.67
2023-01-04T08:54:11.856Z,3.80
2023-01-04T08:58:13.002Z,3.93
2023-01-04T09:02:25.842Z,4.37
2023-01-04T09:06:28.233Z,4.30
2023-01-04T09:10:29.262Z,4.00
2023-01-04T09:14:30.478Z,3.40
2023-01-04T09:18:32.776Z,3.83
2023-01-04T09:22:34.211Z,3.73
2023-01-04T09:26:35.322Z,2.90
2023-01-04T09:30:36.493Z,3.60
2023-01-04T09:34:39.360Z,3.43
2023-01-04T09:38:40.840Z,3.50
2023-01-04T09:43:21.081Z,2.90
2023-01-04T09:47:01.459Z,3.10
2023-01-04T09:51:05.929Z,2.80
2023-01-04T09:55:39.051Z,3.57
2023-01-04T09:59:15.852Z,2.30
2023-01-04T10:03:21.055Z,2.30
2023-01-04T10:07:29.222Z,2.80
2023-01-04T10:11:43.312Z,2.87
2023-01-04T10:16:06.374Z,2.80
2023-01-04T10:24:52.653Z,2.50
2023-01-04T10:29:31.184Z,2.77
2023-01-04T10:33:48.076Z,2.73
2023-01-04T10:37:55.657Z,2.60
2023-01-04T10:42:17.185Z,2.40
2023-01-04T10:46:34.128Z,2.50
2023-01-04T10:51:09.276Z,2.20
2023-01-04T10:55:08.819Z,2.00
2023-01-04T10:59:20.572Z,2.20
2023-01-04T11:03:28.443Z,2.07
2023-01-04T11:07:42.631Z,2.67
2023-01-04T11:11:45.888Z,1.90
2023-01-04T11:15:47.504Z,2.03
2023-01-04T11:19:48.964Z,2.30
2023-01-04T11:23:49.989Z,2.17
2023-01-04T11:27:58.133Z,2.00
2023-01-04T11:32:21.217Z,2.07
2023-01-04T11:36:35.081Z,1.77
2023-01-04T11:40:36.185Z,2.00
2023-01-04T11:44:37.172Z,1.83
2023-01-04T11:48:42.272Z,1.90
2023-01-04T11:52:45.372Z,2.13
2023-01-04T11:57:00.547Z,2.60
2023-01-04T12:01:01.671Z,2.40
2023-01-04T12:05:13.046Z,1.80
2023-01-04T12:09:16.787Z,2.60
2023-01-04T12:13:17.879Z,1.93
2023-01-04T12:17:22.783Z,2.07
2023-01-04T12:21:25.869Z,2.13
2023-01-04T12:25:44.918Z,2.30
2023-01-04T12:29:58.701Z,3.13
2023-01-04T12:34:03.659Z,2.10
2023-01-04T12:38:04.791Z,2.60
2023-01-04T12:42:17.985Z,2.30
2023-01-04T12:46:50.654Z,2.10
2023-01-04T12:51:34.438Z,2.43
2023-01-04T12:55:42.006Z,2.47
2023-01-04T12:59:58.561Z,2.40
2023-01-04T13:04:05.967Z,2.27
2023-01-04T13:08:14.191Z,2.70
2023-01-04T13:12:35.809Z,2.60
2023-01-04T13:16:52.166Z,2.10
2023-01-04T13:20:54.875Z,2.00
2023-01-04T13:24:57.860Z,2.23
2023-01-04T13:29:15.019Z,2.10
2023-01-04T13:33:28.795Z,1.80
2023-01-04T13:37:33.040Z,2.40
2023-01-04T13:41:34.175Z,1.73
2023-01-04T13:46:06.263Z,1.87
2023-01-04T13:50:05.722Z,2.10
2023-01-04T13:54:22.066Z,2.13
2023-01-04T13:58:25.997Z,1.90
2023-01-04T14:02:27.190Z,1.87
2023-01-04T14:06:31.969Z,1.73
2023-01-04T14:10:33.185Z,1.90
2023-01-04T14:14:50.049Z,1.57
2023-01-04T14:18:50.992Z,2.00
2023-01-04T14:22:55.390Z,2.10
2023-01-04T14:26:56.360Z,3.30
2023-01-04T14:31:06.056Z,3.30
2023-01-04T14:35:10.967Z,2.83
2023-01-04T14:39:18.871Z,2.63
2023-01-04T14:43:35.870Z,1.97
2023-01-04T14:47:36.914Z,1.83
2023-01-04T14:51:47.851Z,1.80
2023-01-04T14:55:48.819Z,1.60
2023-01-04T14:59:49.761Z,1.77
2023-01-04T15:03:50.918Z,1.43
2023-01-04T15:07:52.122Z,1.30
2023-01-04T15:11:54.994Z,1.00
2023-01-04T15:15:55.993Z,1.10
2023-01-04T15:19:56.928Z,1.10
2023-01-04T15:23:58.269Z,1.10
2023-01-04T15:27:59.394Z,1.30
2023-01-04T15:32:00.360Z,1.10
2023-01-04T15:36:04.529Z,1.10
2023-01-04T15:40:06.128Z,0.93
2023-01-04T15:44:10.590Z,0.90
2023-01-04T15:48:12.405Z,1.10
2023-01-04T15:52:13.916Z,1.10
2023-01-04T15:56:14.865Z,1.13
2023-01-04T16:00:16.338Z,1.00
2023-01-04T16:04:17.297Z,1.40
2023-01-04T16:08:18.233Z,1.10
2023-01-04T16:12:38.302Z,1.23
2023-01-04T16:16:39.311Z,1.23
2023-01-04T16:20:41.453Z,1.00
2023-01-04T16:25:09.849Z,1.47
2023-01-04T16:28:53.750Z,1.10
2023-01-04T16:32:54.725Z,0.93
2023-01-04T16:36:55.712Z,0.90
2023-01-04T16:41:01.233Z,0.85
2023-01-04T16:45:02.341Z,0.90
2023-01-04T16:49:12.733Z,1.20
2023-01-04T16:53:13.702Z,1.00
2023-01-04T16:57:15.015Z,1.30
2023-01-04T17:01:25.972Z,1.32
2023-01-04T17:05:27.157Z,1.13
2023-01-04T17:09:28.072Z,1.30
2023-01-04T17:13:29.069Z,1.07
2023-01-04T17:17:30.187Z,1.17
2023-01-04T17:21:34.383Z,0.90
2023-01-04T17:25:34.192Z,1.00
2023-01-04T17:29:35.131Z,1.30
2023-01-04T17:33:36.273Z,1.43
2023-01-04T17:37:37.267Z,1.70
2023-01-04T17:41:38.961Z,1.20
2023-01-04T17:45:40.165Z,1.40
2023-01-04T17:49:41.440Z,1.72
2023-01-04T17:53:44.394Z,1.03
2023-01-04T17:57:46.054Z,0.90
2023-01-04T18:01:47.187Z,0.90
2023-01-04T18:06:07.151Z,1.00
2023-01-04T18:09:57.283Z,1.20
2023-01-04T18:13:58.556Z,1.20
2023-01-04T18:17:59.518Z,1.13
2023-01-04T18:22:00.981Z,1.00
2023-01-04T18:26:02.840Z,0.90
2023-01-04T18:30:06.364Z,0.80
2023-01-04T18:34:09.947Z,0.90
2023-01-04T18:38:10.962Z,0.90
2023-01-04T18:42:11.964Z,0.60
2023-01-04T18:46:13.149Z,0.60
2023-01-04T18:50:16.854Z,0.73
2023-01-04T18:54:19.891Z,0.60
2023-01-04T18:58:21.040Z,0.73
2023-01-04T19:02:22.286Z,1.10
2023-01-04T19:06:23.563Z,0.70
2023-01-04T19:10:24.819Z,0.87
2023-01-04T19:14:25.951Z,0.63
2023-01-04T19:18:27.940Z,0.70
2023-01-04T19:22:29.093Z,0.60
2023-01-04T19:26:30.098Z,0.53
2023-01-04T19:30:31.383Z,0.60
2023-01-04T19:34:32.462Z,0.57
2023-01-04T19:38:33.622Z,1.17
2023-01-04T19:42:34.602Z,0.83
2023-01-04T19:46:39.813Z,0.70
2023-01-04T19:50:40.907Z,1.07
2023-01-04T19:54:41.966Z,1.37
2023-01-04T19:58:43.272Z,0.70
2023-01-04T20:02:44.437Z,0.90
2023-01-04T20:06:46.124Z,1.50
2023-01-04T20:10:54.434Z,1.37
2023-01-04T20:14:55.545Z,1.20
2023-01-04T20:18:57.316Z,1.37
2023-01-04T20:22:58.510Z,1.60
2023-01-04T20:26:59.469Z,1.77
2023-01-04T20:31:02.807Z,1.10
2023-01-04T20:35:04.401Z,1.00
2023-01-04T20:39:05.668Z,1.50
2023-01-04T20:43:25.157Z,1.50
2023-01-04T20:47:26.236Z,1.90
2023-01-04T20:51:29.255Z,2.20
2023-01-04T20:55:30.510Z,2.40
2023-01-04T20:59:31.677Z,2.37
2023-01-04T21:03:34.058Z,2.00
2023-01-04T21:07:35.177Z,1.50
2023-01-04T21:11:36.214Z,1.47
2023-01-04T21:15:38.485Z,1.30
2023-01-04T21:19:39.655Z,2.47
2023-01-04T21:23:42.630Z,1.53
2023-01-04T21:27:44.152Z,2.33
2023-01-04T21:31:46.631Z,1.10
2023-01-04T21:35:47.622Z,1.23
2023-01-04T21:39:48.802Z,1.77
2023-01-04T21:43:51.460Z,1.23
2023-01-04T21:47:54.013Z,1.57
2023-01-04T21:51:55.219Z,2.03
2023-01-04T21:55:59.047Z,1.93
2023-01-04T22:00:00.345Z,1.60
2023-01-04T22:04:02.186Z,2.20
2023-01-04T22:08:03.589Z,1.50
2023-01-04T22:12:05.387Z,1.57
2023-01-04T22:16:09.398Z,1.63
2023-01-04T22:20:10.935Z,1.47
2023-01-04T22:24:13.322Z,1.40
2023-01-04T22:28:14.273Z,1.50
2023-01-04T22:32:15.296Z,1.37
2023-01-04T22:36:22.205Z,0.97
2023-01-04T22:40:19.706Z,0.90
2023-01-04T22:44:20.824Z,1.07
2023-01-04T22:48:21.995Z,1.07
2023-01-04T22:52:23.091Z,1.27
2023-01-04T22:56:25.416Z,1.10
2023-01-04T23:00:26.571Z,1.07
2023-01-04T23:04:27.684Z,0.73
2023-01-04T23:08:28.606Z,1.30
2023-01-04T23:12:29.693Z,0.80
2023-01-04T23:16:33.229Z,0.90
2023-01-04T23:20:33.819Z,0.80
2023-01-04T23:24:37.030Z,1.00
2023-01-04T23:28:38.280Z,0.87
2023-01-04T23:32:39.479Z,0.50
2023-01-04T23:36:41.975Z,0.70
2023-01-04T23:40:47.936Z,0.70
2023-01-04T23:44:48.896Z,0.80
2023-01-04T23:48:49.875Z,0.90
2023-01-04T23:52:50.974Z,0.93
2023-01-04T23:56:52.365Z,0.90
